createdAt,value
2023-02-03T00:00:23.994Z,997.74
2023-02-03T00:01:23.758Z,997.68
2023-02-03T00:02:23.696Z,997.70
2023-02-03T00:03:23.733Z,997.66
2023-02-03T00:04:23.715Z,997.67
2023-02-03T00:05:23.640Z,997.60
2023-02-03T00:06:23.867Z,997.63
2023-02-03T00:07:23.629Z,997.62
2023-02-03T00:08:23.655Z,997.56
2023-02-03T00:09:23.603Z,997.62
2023-02-03T00:10:24.057Z,997.59
2023-02-03T00:11:23.584Z,997.60
2023-02-03T00:12:23.577Z,997.64
2023-02-03T00:13:23.924Z,997.57
2023-02-03T00:14:23.515Z,997.55
2023-02-03T00:15:23.525Z,997.53
2023-02-03T00:16:23.529Z,997.47
2023-02-03T00:17:23.509Z,997.49
2023-02-03T00:18:23.539Z,997.45
2023-02-03T00:19:23.816Z,997.43
2023-02-03T00:20:23.718Z,997.38
2023-02-03T00:21:23.507Z,997.41
2023-02-03T00:22:23.433Z,997.33
2023-02-03T00:23:23.475Z,997.30
2023-02-03T00:24:23.472Z,997.26
2023-02-03T00:25:23.434Z,997.25
2023-02-03T00:26:23.616Z,997.26
2023-02-03T00:27:23.504Z,997.26
2023-02-03T00:28:23.329Z,997.24
2023-02-03T00:29:23.348Z,997.24
2023-02-03T00:30:23.891Z,997.29
2023-02-03T00:31:23.411Z,997.23
2023-02-03T00:32:23.533Z,997.17
2023-02-03T00:33:23.498Z,997.15
2023-02-03T00:34:23.273Z,997.14
2023-02-03T00:35:23.234Z,997.10
2023-02-03T00:36:23.461Z,997.07
2023-02-03T00:37:23.226Z,997.11
2023-02-03T00:38:23.198Z,997.05
2023-02-03T00:39:23.816Z,997.13
2023-02-03T00:40:23.555Z,997.06
2023-02-03T00:41:23.148Z,997.04
2023-02-03T00:42:23.161Z,997.08
2023-02-03T00:43:23.269Z,997.02
2023-02-03T00:44:23.318Z,997.06
2023-02-03T00:45:23.442Z,996.99
2023-02-03T00:46:23.107Z,996.98
2023-02-03T00:47:23.150Z,996.92
2023-02-03T00:48:23.082Z,996.91
2023-02-03T00:49:23.123Z,996.89
2023-02-03T00:50:23.033Z,996.87
2023-02-03T00:51:23.016Z,996.90
2023-02-03T00:52:23.010Z,996.86
2023-02-03T00:53:23.035Z,996.87
2023-02-03T00:54:22.970Z,996.86
2023-02-03T00:55:23.011Z,996.77
2023-02-03T00:56:22.981Z,996.81
2023-02-03T00:57:23.021Z,996.73
2023-02-03T00:58:22.986Z,996.72
2023-02-03T00:59:22.952Z,996.75
2023-02-03T01:00:23.057Z,996.73
2023-02-03T01:01:23.033Z,996.75
2023-02-03T01:02:22.961Z,996.79
2023-02-03T01:03:22.930Z,996.74
2023-02-03T01:04:23.063Z,996.62
2023-02-03T01:05:22.839Z,996.71
2023-02-03T01:06:22.811Z,996.66
2023-02-03T01:07:22.884Z,996.69
2023-02-03T01:08:22.871Z,996.66
2023-02-03T01:09:22.779Z,996.61
2023-02-03T01:10:22.820Z,996.61
2023-02-03T01:11:22.771Z,996.61
2023-02-03T01:12:22.861Z,996.60
2023-02-03T01:13:22.763Z,996.53
2023-02-03T01:14:22.714Z,996.53
2023-02-03T01:15:22.714Z,996.57
2023-02-03T01:16:22.733Z,996.59
2023-02-03T01:17:22.651Z,996.58
2023-02-03T01:18:22.655Z,996.59
2023-02-03T01:19:22.780Z,996.60
2023-02-03T01:20:22.641Z,996.57
2023-02-03T01:21:22.631Z,996.51
2023-02-03T01:22:22.659Z,996.59
2023-02-03T01:23:22.616Z,996.56
2023-02-03T01:24:22.616Z,996.54
2023-02-03T01:25:22.592Z,996.47
2023-02-03T01:26:22.583Z,996.42
2023-02-03T01:27:22.539Z,996.39
2023-02-03T01:28:22.619Z,996.37
2023-02-03T01:29:22.558Z,996.34
2023-02-03T01:30:22.493Z,996.32
2023-02-03T01:31:22.738Z,996.29
2023-02-03T01:32:22.472Z,996.27
2023-02-03T01:33:22.521Z,996.28
2023-02-03T01:34:22.440Z,996.23
2023-02-03T01:35:22.731Z,996.24
2023-02-03T01:36:22.664Z,996.23
2023-02-03T01:37:22.581Z,996.27
2023-02-03T01:38:22.425Z,996.33
2023-02-03T01:39:22.446Z,996.27
2023-02-03T01:40:22.491Z,996.32
2023-02-03T01:41:22.367Z,996.35
2023-02-03T01:42:22.356Z,996.34
2023-02-03T01:43:22.304Z,996.35
2023-02-03T01:44:22.530Z,996.23
2023-02-03T01:45:22.293Z,996.28
2023-02-03T01:46:22.302Z,996.24
2023-02-03T01:47:22.491Z,996.26
2023-02-03T01:48:22.275Z,996.27
2023-02-03T01:49:22.275Z,996.14
2023-02-03T01:50:22.217Z,996.14
2023-02-03T01:51:22.306Z,996.08
2023-02-03T01:52:22.202Z,996.11
2023-02-03T01:53:22.205Z,996.13
2023-02-03T01:54:22.205Z,996.15
2023-02-03T01:55:22.253Z,996.10
2023-02-03T01:56:22.139Z,996.09
2023-02-03T01:57:22.153Z,996.09
2023-02-03T01:58:22.209Z,996.14
2023-02-03T01:59:22.190Z,996.11
2023-02-03T02:00:22.097Z,996.12
2023-02-03T02:01:22.191Z,996.17
2023-02-03T02:02:22.158Z,996.19
2023-02-03T02:03:22.053Z,996.22
2023-02-03T02:04:22.049Z,996.15
2023-02-03T02:05:22.078Z,996.15
2023-02-03T02:06:22.089Z,996.11
2023-02-03T02:07:22.028Z,996.11
2023-02-03T02:08:22.031Z,996.10
2023-02-03T02:09:22.049Z,996.04
2023-02-03T02:10:21.975Z,995.99
2023-02-03T02:11:22.006Z,996.04
2023-02-03T02:12:21.942Z,995.97
2023-02-03T02:13:21.955Z,995.97
2023-02-03T02:14:22.141Z,995.95
2023-02-03T02:15:21.972Z,995.94
2023-02-03T02:16:21.964Z,996.02
2023-02-03T02:17:21.981Z,995.99
2023-02-03T02:18:21.851Z,995.99
2023-02-03T02:19:21.865Z,995.97
2023-02-03T02:20:21.878Z,996.02
2023-02-03T02:21:21.877Z,996.07
2023-02-03T02:22:21.872Z,996.04
2023-02-03T02:23:21.807Z,996.06
2023-02-03T02:24:21.783Z,996.02
2023-02-03T02:25:21.769Z,996.04
2023-02-03T02:26:21.749Z,995.99
2023-02-03T02:27:21.734Z,996.01
2023-02-03T02:28:21.731Z,996.04
2023-02-03T02:29:21.762Z,995.99
2023-02-03T02:30:21.700Z,996.04
2023-02-03T02:31:21.815Z,995.98
2023-02-03T02:32:22.125Z,996.04
2023-02-03T02:33:21.677Z,996.04
2023-02-03T02:34:21.720Z,996.03
2023-02-03T02:35:21.675Z,996.06
2023-02-03T02:36:21.622Z,996.02
2023-02-03T02:37:21.837Z,996.06
2023-02-03T02:38:21.703Z,996.10
2023-02-03T02:39:21.849Z,996.02
2023-02-03T02:40:21.561Z,996.08
2023-02-03T02:41:21.563Z,996.06
2023-02-03T02:42:21.553Z,996.05
2023-02-03T02:43:21.530Z,996.06
2023-02-03T02:44:21.540Z,996.00
2023-02-03T02:45:21.559Z,995.96
2023-02-03T02:46:21.725Z,995.93
2023-02-03T02:47:21.498Z,995.94
2023-02-03T02:48:21.709Z,995.91
2023-02-03T02:49:21.522Z,995.91
2023-02-03T02:50:21.649Z,995.82
2023-02-03T02:51:21.450Z,995.81
2023-02-03T02:52:21.662Z,995.82
2023-02-03T02:53:21.499Z,995.95
2023-02-03T02:54:21.512Z,995.92
2023-02-03T02:55:21.606Z,995.98
2023-02-03T02:56:21.368Z,995.99
2023-02-03T02:57:21.451Z,996.06
2023-02-03T02:58:21.433Z,995.96
2023-02-03T02:59:21.326Z,995.94
2023-02-03T03:00:21.366Z,995.83
2023-02-03T03:01:21.409Z,995.82
2023-02-03T03:02:21.318Z,995.82
2023-02-03T03:03:21.371Z,995.89
2023-02-03T03:04:21.373Z,995.79
2023-02-03T03:05:21.243Z,995.82
2023-02-03T03:06:21.262Z,995.82
2023-02-03T03:07:21.431Z,995.72
2023-02-03T03:08:21.434Z,995.76
2023-02-03T03:09:21.238Z,995.80
2023-02-03T03:10:21.255Z,995.78
2023-02-03T03:11:21.221Z,995.74
2023-02-03T03:12:21.202Z,995.73
2023-02-03T03:13:21.567Z,995.74
2023-02-03T03:14:21.156Z,995.67
2023-02-03T03:15:21.247Z,995.72
2023-02-03T03:16:21.181Z,995.69
2023-02-03T03:17:21.121Z,995.65
2023-02-03T03:18:21.107Z,995.67
2023-02-03T03:19:21.108Z,995.76
2023-02-03T03:20:21.138Z,995.77
2023-02-03T03:21:21.048Z,995.74
2023-02-03T03:22:21.043Z,995.70
2023-02-03T03:23:21.163Z,995.73
2023-02-03T03:24:21.258Z,995.64
2023-02-03T03:25:21.054Z,995.63
2023-02-03T03:26:20.999Z,995.62
2023-02-03T03:27:21.119Z,995.70
2023-02-03T03:28:20.989Z,995.67
2023-02-03T03:29:20.974Z,995.71
2023-02-03T03:30:20.963Z,995.73
2023-02-03T03:31:21.226Z,995.78
2023-02-03T03:32:20.948Z,995.74
2023-02-03T03:33:20.913Z,995.87
2023-02-03T03:34:20.957Z,995.86
2023-02-03T03:35:20.895Z,995.88
2023-02-03T03:36:20.883Z,995.80
2023-02-03T03:37:21.479Z,995.74
2023-02-03T03:38:20.870Z,995.73
2023-02-03T03:39:20.858Z,995.66
2023-02-03T03:40:20.842Z,995.65
2023-02-03T03:41:20.824Z,995.70
2023-02-03T03:42:21.031Z,995.58
2023-02-03T03:43:20.867Z,995.55
2023-02-03T03:44:21.057Z,995.56
2023-02-03T03:45:20.748Z,995.49
2023-02-03T03:46:20.773Z,995.43
2023-02-03T03:47:20.763Z,995.51
2023-02-03T03:48:20.728Z,995.48
2023-02-03T03:49:20.767Z,995.46
2023-02-03T03:50:20.753Z,995.48
2023-02-03T03:51:20.779Z,995.43
2023-02-03T03:52:20.718Z,995.35
2023-02-03T03:53:20.670Z,995.35
2023-02-03T03:54:20.799Z,995.32
2023-02-03T03:55:20.638Z,995.27
2023-02-03T03:56:20.638Z,995.23
2023-02-03T03:57:20.718Z,995.19
2023-02-03T03:58:20.591Z,995.16
2023-02-03T03:59:20.731Z,995.16
2023-02-03T04:00:20.683Z,995.24
2023-02-03T04:01:20.653Z,995.28
2023-02-03T04:02:20.637Z,995.34
2023-02-03T04:03:20.633Z,995.37
2023-02-03T04:04:20.747Z,995.38
2023-02-03T04:05:20.565Z,995.33
2023-02-03T04:06:20.560Z,995.31
2023-02-03T04:07:20.532Z,995.33
2023-02-03T04:08:20.520Z,995.33
2023-02-03T04:09:20.502Z,995.31
2023-02-03T04:10:20.447Z,995.24
2023-02-03T04:11:20.460Z,995.33
2023-02-03T04:12:20.425Z,995.31
2023-02-03T04:13:20.399Z,995.30
2023-02-03T04:14:20.547Z,995.34
2023-02-03T04:15:20.501Z,995.20
2023-02-03T04:16:20.496Z,995.32
2023-02-03T04:17:20.592Z,995.20
2023-02-03T04:18:20.415Z,995.18
2023-02-03T04:19:20.547Z,995.13
2023-02-03T04:20:20.371Z,995.17
2023-02-03T04:21:20.352Z,995.04
2023-02-03T04:22:20.363Z,995.15
2023-02-03T04:23:20.400Z,995.18
2023-02-03T04:24:20.271Z,995.28
2023-02-03T04:25:20.299Z,995.24
2023-02-03T04:26:20.342Z,995.32
2023-02-03T04:27:20.272Z,995.28
2023-02-03T04:28:20.262Z,995.35
2023-02-03T04:29:20.310Z,995.29
2023-02-03T04:30:20.452Z,995.26
2023-02-03T04:31:20.599Z,995.20
2023-02-03T04:32:20.268Z,995.11
2023-02-03T04:33:20.183Z,995.07
2023-02-03T04:34:20.147Z,995.05
2023-02-03T04:35:20.214Z,995.11
2023-02-03T04:36:20.350Z,995.17
2023-02-03T04:37:20.160Z,995.15
2023-02-03T04:38:20.120Z,995.09
2023-02-03T04:39:20.102Z,995.14
2023-02-03T04:40:20.165Z,995.11
2023-02-03T04:41:20.124Z,995.18
2023-02-03T04:42:20.044Z,995.21
2023-02-03T04:43:20.054Z,995.25
2023-02-03T04:44:20.030Z,995.30
2023-02-03T04:45:20.025Z,995.29
2023-02-03T04:46:20.053Z,995.30
2023-02-03T04:47:20.149Z,995.26
2023-02-03T04:48:19.986Z,995.26
2023-02-03T04:49:20.123Z,995.24
2023-02-03T04:50:19.968Z,995.17
2023-02-03T04:51:20.030Z,995.18
2023-02-03T04:52:19.941Z,995.07
2023-02-03T04:53:19.933Z,995.01
2023-02-03T04:54:19.924Z,994.98
2023-02-03T04:55:19.948Z,994.98
2023-02-03T04:56:19.905Z,994.93
2023-02-03T04:57:20.084Z,994.88
2023-02-03T04:58:19.909Z,994.94
2023-02-03T04:59:20.056Z,994.91
2023-02-03T05:00:19.899Z,994.93
2023-02-03T05:01:19.853Z,994.91
2023-02-03T05:02:19.902Z,994.88
2023-02-03T05:03:19.933Z,994.94
2023-02-03T05:04:19.783Z,994.90
2023-02-03T05:05:19.805Z,994.86
2023-02-03T05:06:19.853Z,994.78
2023-02-03T05:07:19.755Z,994.83
2023-02-03T05:08:19.735Z,994.86
2023-02-03T05:09:19.765Z,994.82
2023-02-03T05:10:19.808Z,994.80
2023-02-03T05:11:19.756Z,994.79
2023-02-03T05:12:19.691Z,994.72
2023-02-03T05:13:19.728Z,994.69
2023-02-03T05:14:19.683Z,994.67
2023-02-03T05:15:19.656Z,994.68
2023-02-03T05:16:19.712Z,994.64
2023-02-03T05:17:19.648Z,994.66
2023-02-03T05:18:19.613Z,994.66
2023-02-03T05:19:19.627Z,994.70
2023-02-03T05:20:19.596Z,994.69
2023-02-03T05:21:19.842Z,994.70
2023-02-03T05:22:19.623Z,994.67
2023-02-03T05:23:19.757Z,994.70
2023-02-03T05:24:19.565Z,994.67
2023-02-03T05:25:19.568Z,994.68
2023-02-03T05:26:19.727Z,994.69
2023-02-03T05:27:19.565Z,994.73
2023-02-03T05:28:19.575Z,994.70
2023-02-03T05:29:19.522Z,994.69
2023-02-03T05:30:19.470Z,994.64
2023-02-03T05:31:19.839Z,994.64
2023-02-03T05:32:19.510Z,994.61
2023-02-03T05:33:19.459Z,994.54
2023-02-03T05:34:19.433Z,994.64
2023-02-03T05:35:19.496Z,994.68
2023-02-03T05:36:19.468Z,994.64
2023-02-03T05:37:19.449Z,994.66
2023-02-03T05:38:19.376Z,994.62
2023-02-03T05:39:19.364Z,994.60
2023-02-03T05:40:19.359Z,994.63
2023-02-03T05:41:19.573Z,994.59
2023-02-03T05:42:19.357Z,994.57
2023-02-03T05:43:19.386Z,994.62
2023-02-03T05:44:19.561Z,994.61
2023-02-03T05:45:19.338Z,994.63
2023-02-03T05:46:19.394Z,994.66
2023-02-03T05:47:19.259Z,994.54
2023-02-03T05:48:19.422Z,994.62
2023-02-03T05:49:19.245Z,994.63
2023-02-03T05:50:19.495Z,994.60
2023-02-03T05:51:19.646Z,994.67
2023-02-03T05:52:19.467Z,994.52
2023-02-03T05:53:19.252Z,994.49
2023-02-03T05:54:19.195Z,994.49
2023-02-03T05:55:19.335Z,994.46
2023-02-03T05:56:19.305Z,994.51
2023-02-03T05:57:19.165Z,994.48
2023-02-03T05:58:19.198Z,994.49
2023-02-03T05:59:19.137Z,994.39
2023-02-03T06:00:19.120Z,994.48
2023-02-03T06:01:19.119Z,994.40
2023-02-03T06:02:19.170Z,994.35
2023-02-03T06:03:19.149Z,994.38
2023-02-03T06:04:19.158Z,994.36
2023-02-03T06:05:19.076Z,994.38
2023-02-03T06:06:19.094Z,994.35
2023-02-03T06:07:19.054Z,994.34
2023-02-03T06:08:19.148Z,994.33
2023-02-03T06:09:19.024Z,994.35
2023-02-03T06:10:19.012Z,994.36
2023-02-03T06:11:19.018Z,994.30
2023-02-03T06:12:19.095Z,994.36
2023-02-03T06:13:19.025Z,994.33
2023-02-03T06:14:19.011Z,994.32
2023-02-03T06:15:19.055Z,994.35
2023-02-03T06:16:18.996Z,994.34
2023-02-03T06:17:19.007Z,994.30
2023-02-03T06:18:18.944Z,994.31
2023-02-03T06:19:18.934Z,994.25
2023-02-03T06:20:18.902Z,994.24
2023-02-03T06:21:19.102Z,994.27
2023-02-03T06:22:18.872Z,994.21
2023-02-03T06:23:19.077Z,994.18
2023-02-03T06:24:18.838Z,994.10
2023-02-03T06:25:18.827Z,994.09
2023-02-03T06:26:18.877Z,994.05
2023-02-03T06:27:18.846Z,994.05
2023-02-03T06:28:18.875Z,994.03
2023-02-03T06:29:18.774Z,993.99
2023-02-03T06:30:18.739Z,993.97
2023-02-03T06:31:18.897Z,993.92
2023-02-03T06:32:18.782Z,993.93
2023-02-03T06:33:18.730Z,993.84
2023-02-03T06:34:18.724Z,993.83
2023-02-03T06:35:18.688Z,993.93
2023-02-03T06:36:18.918Z,993.96
2023-02-03T06:37:18.725Z,993.97
2023-02-03T06:38:18.665Z,993.86
2023-02-03T06:39:18.661Z,993.92
2023-02-03T06:40:18.731Z,993.85
2023-02-03T06:41:18.643Z,993.89
2023-02-03T06:42:19.077Z,993.89
2023-02-03T06:43:18.659Z,993.96
2023-02-03T06:44:18.592Z,993.86
2023-02-03T06:45:18.571Z,993.96
2023-02-03T06:46:18.855Z,994.07
2023-02-03T06:47:18.550Z,994.00
2023-02-03T06:48:18.526Z,994.03
2023-02-03T06:49:18.532Z,993.97
2023-02-03T06:50:18.539Z,994.00
2023-02-03T06:51:18.515Z,994.04
2023-02-03T06:52:18.559Z,994.03
2023-02-03T06:53:18.573Z,994.09
2023-02-03T06:54:18.463Z,994.04
2023-02-03T06:55:18.489Z,994.09
2023-02-03T06:56:18.437Z,993.95
2023-02-03T06:57:18.466Z,994.01
2023-02-03T06:58:18.453Z,994.00
2023-02-03T06:59:18.434Z,994.00
2023-02-03T07:00:25.443Z,993.98
2023-02-03T07:01:18.458Z,993.92
2023-02-03T07:02:18.612Z,993.84
2023-02-03T07:03:18.577Z,993.83
2023-02-03T07:04:18.343Z,993.80
2023-02-03T07:05:18.395Z,993.78
2023-02-03T07:06:18.497Z,993.80
2023-02-03T07:07:18.504Z,993.79
2023-02-03T07:08:18.307Z,993.73
2023-02-03T07:09:18.316Z,993.75
2023-02-03T07:10:18.296Z,993.83
2023-02-03T07:11:18.361Z,993.85
2023-02-03T07:12:18.293Z,993.84
2023-02-03T07:13:18.296Z,993.89
2023-02-03T07:14:18.236Z,993.83
2023-02-03T07:15:18.228Z,994.00
2023-02-03T07:16:18.350Z,993.92
2023-02-03T07:17:18.260Z,993.91
2023-02-03T07:18:43.417Z,993.91
2023-02-03T07:19:18.233Z,993.82
2023-02-03T07:20:18.285Z,993.94
2023-02-03T07:21:18.160Z,993.99
2023-02-03T07:22:18.181Z,993.97
2023-02-03T07:23:18.224Z,993.96
2023-02-03T07:24:18.142Z,994.06
2023-02-03T07:25:18.243Z,994.10
2023-02-03T07:26:18.155Z,994.04
2023-02-03T07:27:18.110Z,994.06
2023-02-03T07:28:18.199Z,993.97
2023-02-03T07:29:18.077Z,993.97
2023-02-03T07:30:18.301Z,993.94
2023-02-03T07:31:18.199Z,993.96
2023-02-03T07:32:18.013Z,993.86
2023-02-03T07:33:18.125Z,993.85
2023-02-03T07:34:18.010Z,993.92
2023-02-03T07:35:18.037Z,993.88
2023-02-03T07:36:18.218Z,993.88
2023-02-03T07:37:17.990Z,993.85
2023-02-03T07:38:18.058Z,993.80
2023-02-03T07:39:18.105Z,993.88
2023-02-03T07:40:17.912Z,993.84
2023-02-03T07:41:18.335Z,993.89
2023-02-03T07:42:17.950Z,993.76
2023-02-03T07:43:17.933Z,993.80
2023-02-03T07:44:17.863Z,993.79
2023-02-03T07:45:17.969Z,993.79
2023-02-03T07:46:17.999Z,993.88
2023-02-03T07:47:17.826Z,993.77
2023-02-03T07:48:17.848Z,993.73
2023-02-03T07:49:17.941Z,993.74
2023-02-03T07:50:17.855Z,993.71
2023-02-03T07:51:17.880Z,993.81
2023-02-03T07:52:17.764Z,993.70
2023-02-03T07:53:17.826Z,993.72
2023-02-03T07:54:17.761Z,993.69
2023-02-03T07:55:17.824Z,993.81
2023-02-03T07:56:17.740Z,993.88
2023-02-03T07:57:17.716Z,993.64
2023-02-03T07:58:17.775Z,993.76
2023-02-03T07:59:17.710Z,993.74
2023-02-03T08:00:17.752Z,993.78
2023-02-03T08:01:17.786Z,993.73
2023-02-03T08:02:17.686Z,993.77
2023-02-03T08:03:17.669Z,993.77
2023-02-03T08:04:17.753Z,993.81
2023-02-03T08:05:17.723Z,993.76
2023-02-03T08:06:18.024Z,993.69
2023-02-03T08:07:17.672Z,993.69
2023-02-03T08:08:17.711Z,993.70
2023-02-03T08:09:17.580Z,993.64
2023-02-03T08:10:17.614Z,993.65
2023-02-03T08:11:17.762Z,993.67
2023-02-03T08:12:17.569Z,993.55
2023-02-03T08:13:17.952Z,993.39
2023-02-03T08:14:17.594Z,993.49
2023-02-03T08:15:17.543Z,993.51
2023-02-03T08:16:17.591Z,993.41
2023-02-03T08:17:17.545Z,993.46
2023-02-03T08:18:17.707Z,993.49
2023-02-03T08:19:17.527Z,993.37
2023-02-03T08:20:17.483Z,993.52
2023-02-03T08:21:17.435Z,993.45
2023-02-03T08:22:17.539Z,993.49
2023-02-03T08:23:17.467Z,993.40
2023-02-03T08:24:17.441Z,993.27
2023-02-03T08:25:17.510Z,993.28
2023-02-03T08:26:17.381Z,993.17
2023-02-03T08:27:17.468Z,993.19
2023-02-03T08:28:17.452Z,993.23
2023-02-03T08:29:17.426Z,993.07
2023-02-03T08:30:17.331Z,993.08
2023-02-03T08:31:17.537Z,993.24
2023-02-03T08:32:17.440Z,993.24
2023-02-03T08:33:17.424Z,993.20
2023-02-03T08:34:17.300Z,993.16
2023-02-03T08:35:17.353Z,993.19
2023-02-03T08:36:17.278Z,993.17
2023-02-03T08:37:17.273Z,992.97
2023-02-03T08:38:17.512Z,993.05
2023-02-03T08:39:17.247Z,992.92
2023-02-03T08:40:17.220Z,992.98
2023-02-03T08:41:17.259Z,992.98
2023-02-03T08:42:17.245Z,992.82
2023-02-03T08:43:17.227Z,992.96
2023-02-03T08:44:17.180Z,992.91
2023-02-03T08:45:17.236Z,992.97
2023-02-03T08:46:17.223Z,992.89
2023-02-03T08:47:17.212Z,992.93
2023-02-03T08:48:17.134Z,992.99
2023-02-03T08:49:17.550Z,993.03
2023-02-03T08:50:17.472Z,993.05
2023-02-03T08:51:17.214Z,992.95
2023-02-03T08:52:19.039Z,992.92
2023-02-03T08:53:17.285Z,992.85
2023-02-03T08:54:17.044Z,992.89
2023-02-03T08:55:17.108Z,992.83
2023-02-03T08:56:17.035Z,992.91
2023-02-03T08:57:17.234Z,992.94
2023-02-03T08:58:17.037Z,992.92
2023-02-03T08:59:17.214Z,992.90
2023-02-03T09:00:16.981Z,992.95
2023-02-03T09:01:17.080Z,993.03
2023-02-03T09:02:16.964Z,993.00
2023-02-03T09:03:16.968Z,993.02
2023-02-03T09:04:17.011Z,993.03
2023-02-03T09:05:16.955Z,993.06
2023-02-03T09:06:16.953Z,992.96
2023-02-03T09:07:16.951Z,992.98
2023-02-03T09:08:16.914Z,992.98
2023-02-03T09:09:17.017Z,992.98
2023-02-03T09:10:16.896Z,992.93
2023-02-03T09:11:16.979Z,992.93
2023-02-03T09:12:16.899Z,992.89
2023-02-03T09:13:16.827Z,992.95
2023-02-03T09:14:16.848Z,993.06
2023-02-03T09:15:16.851Z,993.02
2023-02-03T09:16:16.864Z,993.02
2023-02-03T09:17:17.159Z,992.98
2023-02-03T09:18:16.827Z,992.92
2023-02-03T09:19:16.768Z,992.68
2023-02-03T09:20:17.253Z,992.85
2023-02-03T09:21:31.731Z,992.81
2023-02-03T09:22:16.742Z,992.75
2023-02-03T09:23:16.707Z,992.78
2023-02-03T09:24:16.727Z,992.79
2023-02-03T09:25:16.725Z,992.71
2023-02-03T09:26:16.947Z,992.62
2023-02-03T09:27:16.716Z,992.60
2023-02-03T09:28:16.792Z,992.61
2023-02-03T09:29:16.642Z,992.61
2023-02-03T09:30:16.636Z,992.43
2023-02-03T09:31:16.779Z,992.55
2023-02-03T09:32:16.626Z,992.60
2023-02-03T09:33:16.614Z,992.56
2023-02-03T09:34:16.588Z,992.63
2023-02-03T09:35:16.619Z,992.58
2023-02-03T09:36:16.567Z,992.44
2023-02-03T09:37:16.552Z,992.33
2023-02-03T09:38:16.739Z,992.31
2023-02-03T09:39:16.529Z,992.28
2023-02-03T09:40:16.516Z,992.35
2023-02-03T09:41:16.943Z,992.22
2023-02-03T09:42:16.707Z,992.19
2023-02-03T09:43:16.485Z,992.16
2023-02-03T09:44:16.465Z,992.21
2023-02-03T09:45:16.466Z,992.15
2023-02-03T09:46:16.535Z,992.11
2023-02-03T09:47:16.464Z,992.09
2023-02-03T09:48:16.424Z,992.08
2023-02-03T09:49:16.428Z,992.16
2023-02-03T09:50:16.410Z,991.90
2023-02-03T09:51:16.413Z,991.93
2023-02-03T09:52:16.409Z,991.86
2023-02-03T09:53:16.374Z,991.96
2023-02-03T09:54:16.395Z,991.93
2023-02-03T09:55:16.362Z,992.01
2023-02-03T09:56:16.358Z,992.01
2023-02-03T09:57:16.324Z,992.00
2023-02-03T09:58:16.347Z,992.02
2023-02-03T09:59:16.320Z,992.10
2023-02-03T10:00:16.305Z,992.22
2023-02-03T10:01:16.335Z,992.10
2023-02-03T10:02:18.550Z,992.17
2023-02-03T10:03:16.258Z,992.05
2023-02-03T10:04:16.263Z,992.04
2023-02-03T10:05:16.264Z,992.14
2023-02-03T10:06:16.224Z,992.08
2023-02-03T10:07:16.237Z,992.21
2023-02-03T10:08:16.255Z,992.08
2023-02-03T10:09:16.194Z,992.11
2023-02-03T10:10:16.175Z,992.27
2023-02-03T10:11:16.173Z,992.17
2023-02-03T10:12:16.156Z,992.30
2023-02-03T10:13:16.148Z,992.27
2023-02-03T10:14:16.140Z,992.23
2023-02-03T10:15:16.131Z,992.26
2023-02-03T10:16:16.135Z,992.04
2023-02-03T10:17:16.121Z,992.17
2023-02-03T10:18:16.109Z,992.12
2023-02-03T10:19:16.087Z,992.13
2023-02-03T10:20:16.291Z,992.17
2023-02-03T10:21:16.060Z,992.18
2023-02-03T10:22:16.045Z,992.11
2023-02-03T10:23:16.066Z,992.11
2023-02-03T10:24:16.020Z,992.20
2023-02-03T10:25:16.021Z,991.95
2023-02-03T10:26:16.025Z,992.04
2023-02-03T10:27:16.000Z,992.11
2023-02-03T10:28:16.072Z,992.09
2023-02-03T10:29:15.992Z,992.09
2023-02-03T10:30:15.973Z,992.02
2023-02-03T10:31:16.044Z,992.14
2023-02-03T10:32:16.030Z,992.02
2023-02-03T10:33:16.143Z,992.02
2023-02-03T10:34:15.912Z,991.93
2023-02-03T10:35:15.904Z,992.02
2023-02-03T10:36:15.912Z,992.07
2023-02-03T10:37:15.878Z,992.03
2023-02-03T10:38:15.873Z,991.99
2023-02-03T10:39:15.912Z,992.14
2023-02-03T10:40:15.854Z,992.01
2023-02-03T10:41:15.870Z,992.06
2023-02-03T10:42:15.831Z,992.13
2023-02-03T10:43:15.827Z,992.09
2023-02-03T10:44:15.858Z,991.99
2023-02-03T10:45:15.801Z,992.14
2023-02-03T10:46:15.831Z,992.17
2023-02-03T10:47:15.776Z,991.98
2023-02-03T10:48:15.976Z,992.10
2023-02-03T10:49:15.944Z,992.03
2023-02-03T10:50:15.741Z,992.03
2023-02-03T10:51:15.726Z,992.13
2023-02-03T10:52:15.721Z,992.05
2023-02-03T10:53:15.698Z,992.08
2023-02-03T10:54:15.731Z,992.09
2023-02-03T10:55:15.938Z,992.09
2023-02-03T10:56:15.690Z,991.93
2023-02-03T10:57:15.653Z,992.04
2023-02-03T10:58:15.661Z,991.99
2023-02-03T10:59:15.903Z,991.93
2023-02-03T11:00:15.630Z,991.83
2023-02-03T11:01:15.725Z,991.69
2023-02-03T11:02:15.679Z,991.79
2023-02-03T11:03:15.596Z,991.73
2023-02-03T11:04:15.622Z,991.76
2023-02-03T11:05:15.601Z,991.67
2023-02-03T11:06:15.577Z,991.63
2023-02-03T11:07:15.552Z,991.69
2023-02-03T11:08:15.529Z,991.58
2023-02-03T11:09:15.557Z,991.47
2023-02-03T11:10:15.522Z,991.37
2023-02-03T11:11:15.522Z,991.36
2023-02-03T11:12:15.534Z,991.08
2023-02-03T11:13:15.497Z,991.02
2023-02-03T11:14:15.473Z,990.89
2023-02-03T11:15:15.472Z,990.84
2023-02-03T11:16:15.583Z,990.74
2023-02-03T11:17:15.440Z,990.72
2023-02-03T11:18:15.453Z,990.71
2023-02-03T11:19:15.427Z,990.65
2023-02-03T11:20:15.408Z,990.69
2023-02-03T11:21:15.391Z,990.43
2023-02-03T11:22:15.419Z,990.48
2023-02-03T11:23:15.367Z,990.77
2023-02-03T11:24:15.366Z,990.72
2023-02-03T11:25:15.370Z,990.80
2023-02-03T11:26:15.455Z,990.75
2023-02-03T11:27:15.367Z,990.79
2023-02-03T11:28:16.030Z,990.88
2023-02-03T11:29:15.318Z,990.90
2023-02-03T11:30:15.313Z,990.97
2023-02-03T11:31:15.411Z,990.94
2023-02-03T11:32:15.287Z,991.00
2023-02-03T11:33:15.259Z,991.02
2023-02-03T11:34:15.271Z,990.99
2023-02-03T11:35:15.285Z,991.06
2023-02-03T11:36:15.446Z,991.04
2023-02-03T11:37:15.276Z,991.06
2023-02-03T11:38:15.212Z,991.00
2023-02-03T11:39:15.256Z,991.01
2023-02-03T11:40:15.208Z,991.15
2023-02-03T11:41:15.177Z,991.15
2023-02-03T11:42:15.218Z,991.08
2023-02-03T11:43:15.394Z,991.21
2023-02-03T11:44:15.132Z,991.21
2023-02-03T11:45:15.199Z,991.17
2023-02-03T11:46:15.210Z,991.14
2023-02-03T11:47:15.177Z,991.16
2023-02-03T11:48:15.114Z,991.11
2023-02-03T11:49:15.081Z,991.13
2023-02-03T11:50:15.128Z,991.05
2023-02-03T11:51:15.079Z,991.04
2023-02-03T11:52:15.080Z,991.08
2023-02-03T11:53:15.272Z,991.12
2023-02-03T11:54:15.040Z,991.16
2023-02-03T11:55:15.048Z,991.08
2023-02-03T11:56:15.015Z,991.10
2023-02-03T11:57:15.001Z,991.14
2023-02-03T11:58:15.205Z,991.09
2023-02-03T11:59:15.244Z,991.11
2023-02-03T12:00:15.014Z,991.08
2023-02-03T12:01:14.948Z,991.11
2023-02-03T12:02:14.965Z,991.18
2023-02-03T12:03:15.211Z,991.14
2023-02-03T12:04:14.981Z,991.14
2023-02-03T12:05:14.910Z,991.13
2023-02-03T12:06:14.896Z,991.01
2023-02-03T12:07:15.100Z,990.98
2023-02-03T12:08:14.940Z,991.07
2023-02-03T12:09:14.861Z,991.19
2023-02-03T12:10:14.840Z,991.09
2023-02-03T12:11:14.863Z,991.06
2023-02-03T12:12:14.818Z,991.01
2023-02-03T12:13:15.026Z,991.07
2023-02-03T12:14:14.997Z,991.14
2023-02-03T12:15:14.819Z,991.02
2023-02-03T12:16:14.818Z,991.19
2023-02-03T12:17:15.014Z,991.07
2023-02-03T12:18:14.767Z,991.16
2023-02-03T12:19:14.952Z,991.23
2023-02-03T12:20:14.751Z,991.17
2023-02-03T12:21:14.753Z,991.25
2023-02-03T12:22:14.738Z,991.32
2023-02-03T12:23:14.730Z,991.19
2023-02-03T12:24:14.692Z,991.34
2023-02-03T12:25:14.878Z,991.24
2023-02-03T12:26:14.708Z,991.27
2023-02-03T12:27:14.655Z,991.28
2023-02-03T12:28:27.215Z,991.26